Time;durP1;ratioP1;P1;durP2;ratioP2;P2;SDS_P1;SDS_P2;PMS_P1;PMS_P2;Temp;Humidity;BMP_temperature;BMP_pressure;BME280_temperature;BME280_humidity;BME280_pressure;Samples;Min_cycle;Max_cycle;Signal;HPM_P1;HPM_P2
2021/12/29 00:00:02;;;;;;;68.90;28.42;;;;;;;0.42;100.00;98990.75;6098088;23;20310;-83
2021/12/29 00:02:38;;;;;;;68.15;28.10;;;;;;;0.31;100.00;98966.25;6123389;23;20017;-82
2021/12/29 00:05:04;;;;;;;74.85;27.98;;;;;;;0.35;100.00;98968.97;6123878;23;20336;-82
2021/12/29 00:07:30;;;;;;;72.88;30.13;;;;;;;0.34;100.00;98965.47;6123745;23;20337;-82
2021/12/29 00:09:59;;;;;;;69.70;27.83;;;;;;;0.36;100.00;98956.88;6097775;23;20021;-82
2021/12/29 00:12:26;;;;;;;75.65;28.67;;;;;;;0.37;100.00;98928.41;6123776;23;20002;-82
2021/12/29 00:14:52;;;;;;;74.57;29.40;;;;;;;0.33;100.00;98944.03;6124102;23;20534;-82
2021/12/29 00:17:18;;;;;;;73.55;27.98;;;;;;;0.32;100.00;98969.75;6123530;23;20073;-82
2021/12/29 00:19:44;;;;;;;65.53;26.70;;;;;;;0.35;100.00;98979.88;6098079;23;20101;-77
2021/12/29 00:22:09;;;;;;;65.85;27.95;;;;;;;0.35;100.00;98964.28;6123450;23;20451;-77
2021/12/29 00:24:35;;;;;;;67.82;28.27;;;;;;;0.37;100.00;98977.53;6123974;23;20041;-77
2021/12/29 00:27:00;;;;;;;70.88;28.13;;;;;;;0.36;100.00;98976.75;6123612;23;20440;-77
2021/12/29 00:29:26;;;;;;;75.07;29.83;;;;;;;0.38;100.00;98984.53;6124133;23;20010;-77
2021/12/29 00:32:11;;;;;;;71.07;28.58;;;;;;;0.38;100.00;98984.53;6122791;23;20017;-77
2021/12/29 00:34:55;;;;;;;65.68;27.17;;;;;;;0.37;100.00;98982.97;6124010;23;20460;-77
2021/12/29 00:37:39;;;;;;;;;;;;;;;0.40;100.00;98987.66;6102056;23;20025;-77
2021/12/29 00:40:38;;;;;;;68.63;26.30;;;;;;;0.36;100.00;98986.91;6094626;23;19912;-77
2021/12/29 00:43:27;;;;;;;70.78;28.23;;;;;;;0.40;100.00;99004.03;6095657;23;20014;-77
2021/12/29 00:46:13;;;;;;;80.13;29.55;;;;;;;0.44;100.00;99004.81;6123669;23;20028;-77
2021/12/29 00:48:42;;;;;;;74.28;28.38;;;;;;;0.42;100.00;99007.13;6097751;23;20149;-77
2021/12/29 00:51:09;;;;;;;77.53;27.30;;;;;;;0.41;100.00;99016.47;6123385;23;20093;-77
2021/12/29 00:53:35;;;;;;;77.82;28.52;;;;;;;0.38;100.00;99009.09;6123594;23;20089;-77
2021/12/29 00:56:01;;;;;;;76.05;27.05;;;;;;;0.37;100.00;99007.53;6074035;23;20057;-77
2021/12/29 00:58:28;;;;;;;74.40;28.55;;;;;;;0.39;100.00;99029.75;6123292;23;20018;-82
2021/12/29 01:00:54;;;;;;;73.38;27.27;;;;;;;0.35;100.00;99026.25;6123934;23;20014;-81
2021/12/29 01:03:19;;;;;;;71.15;27.23;;;;;;;0.32;100.00;99035.22;6122713;23;20018;-81
2021/12/29 01:05:45;;;;;;;74.97;27.77;;;;;;;0.39;100.00;99029.75;6123981;23;20064;-82
2021/12/29 01:08:11;;;;;;;72.22;27.38;;;;;;;0.43;100.00;99027.78;6122436;23;20025;-82
2021/12/29 01:10:37;;;;;;;68.35;25.58;;;;;;;0.36;100.00;99027.81;6123329;23;20014;-82
2021/12/29 01:13:04;;;;;;;73.97;27.48;;;;;;;0.35;100.00;99020.78;6123239;23;20005;-82
2021/12/29 01:15:37;;;;;;;71.50;26.95;;;;;;;0.40;100.00;99031.31;6124020;23;20093;-82
2021/12/29 01:18:04;;;;;;;67.82;25.92;;;;;;;0.36;100.00;99022.34;6073971;23;20014;-77
2021/12/29 01:20:31;;;;;;;70.32;25.42;;;;;;;0.32;100.00;99002.50;6123411;23;20425;-77
2021/12/29 01:22:59;;;;;;;74.03;27.55;;;;;;;0.32;100.00;98997.81;6123262;23;20010;-77
2021/12/29 01:25:25;;;;;;;72.68;26.98;;;;;;;0.36;100.00;99014.19;6123653;23;20017;-77
2021/12/29 01:27:51;;;;;;;77.38;28.40;;;;;;;0.35;100.00;99031.72;6123348;23;20073;-77
2021/12/29 01:30:17;;;;;;;84.13;28.65;;;;;;;0.38;100.00;99022.72;6122181;23;20006;-77
2021/12/29 01:32:43;;;;;;;79.13;27.83;;;;;;;0.38;100.00;99028.19;6123045;23;20014;-76
2021/12/29 01:35:11;;;;;;;85.30;29.45;;;;;;;0.34;100.00;99016.50;6123973;23;20014;-77
2021/12/29 01:37:36;;;;;;;93.70;30.73;;;;;;;0.30;100.00;99004.81;6123394;23;20041;-77
2021/12/29 01:40:05;;;;;;;85.55;30.40;;;;;;;0.32;100.00;98980.66;6097700;23;20014;-77
2021/12/29 01:42:30;;;;;;;96.25;30.23;;;;;;;0.32;100.00;98967.81;6123200;23;20507;-77
2021/12/29 01:44:56;;;;;;;96.32;30.83;;;;;;;0.23;100.00;98966.66;6124077;23;20041;-77
2021/12/29 01:47:27;;;;;;;110.22;32.38;;;;;;;0.23;100.00;98970.16;6125363;23;20081;-77
2021/12/29 01:49:52;;;;;;;98.38;31.58;;;;;;;0.26;100.00;99004.06;6125482;23;20014;-77
2021/12/29 01:52:22;;;;;;;97.85;33.08;;;;;;;0.23;100.00;98999.38;6125008;23;20053;-77
2021/12/29 01:54:48;;;;;;;112.78;33.47;;;;;;;0.26;100.00;98993.16;6125467;23;20453;-77
2021/12/29 01:57:13;;;;;;;108.72;32.67;;;;;;;0.22;100.00;98995.09;6124085;23;20014;-77
2021/12/29 01:59:39;;;;;;;107.15;32.65;;;;;;;0.23;100.00;98988.47;6099403;23;20017;-77
2021/12/29 02:02:05;;;;;;;104.75;33.30;;;;;;;0.21;100.00;99007.94;6098932;23;20061;-77
2021/12/29 02:04:30;;;;;;;102.53;32.80;;;;;;;0.26;100.00;99004.06;6124957;23;20022;-77
2021/12/29 02:06:56;;;;;;;109.25;32.28;;;;;;;0.23;100.00;98993.94;6099476;23;20024;-77
2021/12/29 02:09:22;;;;;;;102.88;32.97;;;;;;;0.27;100.00;99000.16;6125119;23;20006;-77
2021/12/29 02:11:47;;;;;;;112.05;34.40;;;;;;;0.29;100.00;99012.22;6099515;23;20013;-77
2021/12/29 02:14:13;;;;;;;104.40;34.05;;;;;;;0.30;100.00;99005.59;6123520;23;20017;-77
2021/12/29 02:16:39;;;;;;;97.20;33.33;;;;;;;0.28;100.00;99009.91;6098005;23;20344;-77
2021/12/29 02:19:11;;;;;;;93.88;31.77;;;;;;;0.27;100.00;98994.72;6097550;23;20005;-77
2021/12/29 02:21:37;;;;;;;102.50;32.75;;;;;;;0.27;100.00;99000.16;6097658;23;20018;-77
2021/12/29 02:24:17;;;;;;;97.78;33.60;;;;;;;0.28;100.00;98988.09;6097433;23;20045;-77
2021/12/29 02:26:44;;;;;;;104.85;32.85;;;;;;;0.27;100.00;98983.78;6123800;23;20014;-77
2021/12/29 02:29:12;;;;;;;102.65;32.50;;;;;;;0.29;100.00;98997.81;6123619;23;20338;-77
2021/12/29 02:31:41;;;;;;;97.15;31.58;;;;;;;0.32;100.00;98988.84;6099116;23;20010;-82
2021/12/29 02:34:09;;;;;;;97.80;32.13;;;;;;;0.29;100.00;98984.16;6098578;23;20020;-77
2021/12/29 02:36:42;;;;;;;91.22;32.88;;;;;;;0.28;100.00;98986.13;6099196;23;20010;-77
2021/12/29 02:39:09;;;;;;;97.03;31.95;;;;;;;0.27;100.00;98972.88;6124591;23;20467;-77
2021/12/29 02:41:35;;;;;;;95.50;32.95;;;;;;;0.25;100.00;98986.13;6125111;23;20379;-77
2021/12/29 02:44:01;;;;;;;89.28;31.90;;;;;;;0.32;100.00;98983.41;6124508;23;20014;-77
2021/12/29 02:46:31;;;;;;;89.43;31.10;;;;;;;0.30;100.00;98983.78;6124691;23;20012;-77
2021/12/29 02:49:02;;;;;;;89.95;30.92;;;;;;;0.32;100.00;99008.72;6097843;23;20021;-77
2021/12/29 02:51:32;;;;;;;94.10;33.00;;;;;;;0.32;100.00;98991.59;6124948;23;20389;-82
2021/12/29 02:53:59;;;;;;;87.78;29.85;;;;;;;0.29;100.00;99017.69;6124280;23;20014;-82
2021/12/29 02:56:26;;;;;;;98.80;32.67;;;;;;;0.21;100.00;99012.63;6098541;23;20037;-82
2021/12/29 02:58:53;;;;;;;92.20;31.85;;;;;;;0.31;100.00;98968.97;6124361;23;20045;-81
2021/12/29 03:01:19;;;;;;;91.03;32.25;;;;;;;0.28;100.00;98922.63;6098642;23;20313;-81
2021/12/29 03:03:45;;;;;;;92.03;28.83;;;;;;;0.26;100.00;98903.13;6098319;23;20430;-81
2021/12/29 03:06:11;;;;;;;93.97;32.70;;;;;;;0.26;100.00;98900.41;6124569;23;20006;-81
2021/12/29 03:08:38;;;;;;;105.00;31.35;;;;;;;0.28;100.00;98892.63;6123790;23;20014;-81
2021/12/29 03:11:04;;;;;;;102.85;30.90;;;;;;;0.30;100.00;98936.63;6098771;23;20290;-77
2021/12/29 03:13:32;;;;;;;97.68;33.10;;;;;;;0.35;100.00;98963.50;6097810;23;20100;-77
2021/12/29 03:15:58;;;;;;;90.18;31.33;;;;;;;0.32;100.00;98940.53;6124270;23;20017;-77
2021/12/29 03:18:23;;;;;;;90.00;29.65;;;;;;;0.29;100.00;98921.44;6124287;23;20419;-77
2021/12/29 03:20:49;;;;;;;89.82;30.25;;;;;;;0.32;100.00;98929.63;6124290;23;20001;-77
2021/12/29 03:23:16;;;;;;;90.47;30.33;;;;;;;0.34;100.00;98931.94;6097537;23;20045;-77
2021/12/29 03:25:42;;;;;;;83.55;29.63;;;;;;;0.35;100.00;98942.47;6074340;23;20010;-77
2021/12/29 03:28:08;;;;;;;90.57;29.85;;;;;;;0.37;100.00;98958.41;6124016;23;20017;-77
2021/12/29 03:30:37;;;;;;;80.63;29.10;;;;;;;0.41;100.00;98976.34;6124749;23;20018;-77
2021/12/29 03:33:05;;;;;;;76.22;29.95;;;;;;;0.45;100.00;98979.84;6098234;23;20009;-77
2021/12/29 03:35:31;;;;;;;81.22;29.08;;;;;;;0.46;100.00;98994.25;6124256;23;20433;-77
2021/12/29 03:37:59;;;;;;;75.78;28.33;;;;;;;0.53;100.00;98998.94;6124281;23;20061;-77
2021/12/29 03:40:24;;;;;;;72.38;28.52;;;;;;;0.52;100.00;99006.34;6098406;23;20037;-77
2021/12/29 03:42:50;;;;;;;80.15;28.80;;;;;;;0.54;100.00;99014.09;6123795;23;20337;-77
2021/12/29 03:45:15;;;;;;;74.10;28.25;;;;;;;0.57;100.00;99005.91;6098038;23;20068;-77
2021/12/29 03:47:41;;;;;;;76.18;28.17;;;;;;;0.58;100.00;99009.41;6124372;23;20018;-77
2021/12/29 03:50:07;;;;;;;77.95;27.85;;;;;;;0.59;100.00;99019.94;6124192;23;20344;-81
2021/12/29 03:52:32;;;;;;;66.70;27.65;;;;;;;0.61;100.00;99020.31;6123924;23;20010;-82
2021/12/29 03:54:58;;;;;;;66.32;25.92;;;;;;;0.64;100.00;99024.22;6123743;23;20156;-81
2021/12/29 03:57:24;;;;;;;63.83;26.95;;;;;;;0.61;100.00;99017.59;6123845;23;20014;-82
2021/12/29 03:59:49;;;;;;;59.25;25.55;;;;;;;0.68;100.00;99025.78;6124119;23;20093;-82
2021/12/29 04:02:15;;;;;;;55.60;25.35;;;;;;;0.67;100.00;99024.22;6123602;23;20017;-81
2021/12/29 04:04:40;;;;;;;62.67;26.27;;;;;;;0.71;100.00;99024.97;6122919;23;20017;-82
2021/12/29 04:07:06;;;;;;;61.70;26.10;;;;;;;0.70;100.00;99020.69;6122974;23;20092;-82
2021/12/29 04:09:31;;;;;;;60.33;25.15;;;;;;;0.71;100.00;98992.22;6122615;23;20093;-77
2021/12/29 04:11:57;;;;;;;63.90;26.73;;;;;;;0.71;100.00;99008.59;6122900;23;20017;-77
2021/12/29 04:14:26;;;;;;;64.88;26.45;;;;;;;0.71;100.00;99003.16;6096648;23;20009;-77
2021/12/29 04:16:56;;;;;;;63.80;26.23;;;;;;;0.75;100.00;99003.13;6123063;23;20088;-77
2021/12/29 04:19:40;;;;;;;59.00;26.42;;;;;;;0.71;100.00;98996.91;6096496;23;20469;-77
2021/12/29 04:22:07;;;;;;;61.25;24.15;;;;;;;0.76;100.00;99015.59;6097466;23;20318;-77
2021/12/29 04:24:36;;;;;;;58.78;25.42;;;;;;;0.74;100.00;99007.81;6122535;23;20006;-77
2021/12/29 04:27:05;;;;;;;57.17;24.58;;;;;;;0.75;100.00;99011.31;6122743;23;20041;-78
2021/12/29 04:29:31;;;;;;;59.47;26.33;;;;;;;0.74;100.00;99020.66;6122161;23;20332;-82
2021/12/29 04:31:57;;;;;;;61.33;25.48;;;;;;;0.74;100.00;99016.00;6122828;23;20045;-82
2021/12/29 04:34:22;;;;;;;56.92;25.00;;;;;;;0.77;100.00;99028.09;6122249;23;20388;-82
2021/12/29 04:36:48;;;;;;;60.10;25.45;;;;;;;0.78;100.00;99024.94;6122829;23;20017;-82
2021/12/29 04:39:14;;;;;;;55.25;24.25;;;;;;;0.73;100.00;99027.31;6121773;23;20026;-82
2021/12/29 04:41:39;;;;;;;57.22;24.90;;;;;;;0.71;100.00;99014.06;6122913;23;20013;-81
2021/12/29 04:44:05;;;;;;;57.42;25.27;;;;;;;0.65;100.00;99018.34;6096615;23;20018;-82
2021/12/29 04:46:38;;;;;;;57.40;24.75;;;;;;;0.60;100.00;99009.81;6122495;23;20014;-82
2021/12/29 04:49:05;;;;;;;55.33;24.00;;;;;;;0.61;100.00;99020.31;6098127;23;20021;-82
2021/12/29 04:51:36;;;;;;;55.83;24.45;;;;;;;0.56;100.00;99018.03;6122125;23;20092;-82
2021/12/29 04:54:04;;;;;;;56.65;25.50;;;;;;;0.62;100.00;99027.34;6122004;23;20072;-82
2021/12/29 04:56:29;;;;;;;59.55;25.77;;;;;;;0.60;100.00;99026.97;6122467;23;20034;-82
2021/12/29 04:58:55;;;;;;;57.85;25.85;;;;;;;0.58;100.00;99037.50;6096580;23;20022;-81
2021/12/29 05:01:20;;;;;;;58.15;25.45;;;;;;;0.57;100.00;99035.16;6121942;23;20059;-82
2021/12/29 05:03:46;;;;;;;59.13;25.60;;;;;;;0.50;100.00;99025.03;6043319;23;1262506;-77
2021/12/29 05:08:37;;;;;;;62.80;26.58;;;;;;;0.56;100.00;99034.38;6123232;23;20460;-77
2021/12/29 05:11:06;;;;;;;60.08;25.42;;;;;;;0.61;100.00;99042.16;6098104;23;20002;-77
2021/12/29 05:13:33;;;;;;;61.25;25.80;;;;;;;0.61;100.00;99033.97;6123244;23;20021;-77
2021/12/29 05:16:00;;;;;;;64.18;26.83;;;;;;;0.64;100.00;99041.38;6123482;23;20006;-77
2021/12/29 05:18:27;;;;;;;54.10;25.05;;;;;;;0.66;100.00;99035.50;6097170;23;20486;-77
2021/12/29 05:20:54;;;;;;;54.55;24.50;;;;;;;0.67;100.00;99034.34;6124895;23;20020;-77
2021/12/29 05:23:19;;;;;;;56.35;26.17;;;;;;;0.69;100.00;99035.50;6075172;23;20449;-77
2021/12/29 05:25:46;;;;;;;57.15;25.08;;;;;;;0.69;100.00;99042.94;6100027;23;20020;-77
2021/12/29 05:28:11;;;;;;;48.97;22.35;;;;;;;0.71;100.00;99041.34;6125167;23;20029;-77
2021/12/29 05:30:37;;;;;;;44.95;21.30;;;;;;;0.69;100.00;99043.69;6125002;23;20384;-77
2021/12/29 05:33:03;;;;;;;47.72;23.60;;;;;;;0.70;100.00;99050.72;6125183;23;20348;-77
2021/12/29 05:35:29;;;;;;;46.55;23.20;;;;;;;0.70;100.00;99056.16;6125500;23;20072;-77
2021/12/29 05:37:56;;;;;;;46.60;23.13;;;;;;;0.74;100.00;99058.88;6125426;23;20440;-77
2021/12/29 05:40:22;;;;;;;48.70;23.08;;;;;;;0.72;100.00;99063.97;6124257;23;20022;-78
2021/12/29 05:42:50;;;;;;;48.30;22.33;;;;;;;0.71;100.00;99059.69;6125164;23;20021;-77
2021/12/29 05:45:16;;;;;;;46.50;21.50;;;;;;;0.74;100.00;99059.66;6099331;23;20017;-77
2021/12/29 05:47:44;;;;;;;46.15;23.50;;;;;;;0.78;100.00;99052.25;6124849;23;20021;-77
2021/12/29 05:50:13;;;;;;;49.28;23.38;;;;;;;0.72;100.00;99047.59;6125245;23;20029;-77
2021/12/29 05:52:39;;;;;;;45.58;22.33;;;;;;;0.78;100.00;99046.78;6099461;23;20021;-77
2021/12/29 05:55:05;;;;;;;48.97;23.90;;;;;;;0.79;100.00;99042.09;6099538;23;20444;-77
2021/12/29 05:57:31;;;;;;;51.00;24.05;;;;;;;0.78;100.00;99040.53;6098637;23;20068;-77
2021/12/29 05:59:57;;;;;;;45.50;22.70;;;;;;;0.73;100.00;99040.97;6125096;23;20022;-77
2021/12/29 06:02:22;;;;;;;50.53;24.67;;;;;;;0.77;100.00;99039.75;6099348;23;20010;-77
2021/12/29 06:04:48;;;;;;;47.88;23.88;;;;;;;0.82;100.00;99041.31;6125066;23;20025;-82
2021/12/29 06:07:13;;;;;;;46.10;23.45;;;;;;;0.73;100.00;99028.06;6124716;23;20038;-82
2021/12/29 06:09:40;;;;;;;45.45;23.02;;;;;;;0.77;100.00;99042.50;6124346;23;20420;-82
2021/12/29 06:12:06;;;;;;;46.58;22.90;;;;;;;0.77;100.00;99039.75;6124917;23;20080;-83
2021/12/29 06:14:31;;;;;;;46.70;23.40;;;;;;;0.77;100.00;99028.09;6098159;23;20018;-82
2021/12/29 06:16:57;;;;;;;54.92;25.05;;;;;;;0.79;100.00;99051.06;6124907;23;20002;-81
2021/12/29 06:19:23;;;;;;;60.20;27.27;;;;;;;0.67;100.00;99051.50;6124816;23;20026;-77
2021/12/29 06:21:48;;;;;;;58.10;27.05;;;;;;;0.70;100.00;99071.75;6125346;23;20014;-77
2021/12/29 06:24:14;;;;;;;56.58;26.75;;;;;;;0.64;100.00;99082.31;6124472;23;20420;-82
2021/12/29 06:26:39;;;;;;;51.30;25.02;;;;;;;0.61;100.00;99096.72;6098946;23;20013;-83
2021/12/29 06:29:05;;;;;;;50.70;25.00;;;;;;;0.60;100.00;99097.94;6123436;23;20069;-83
2021/12/29 06:31:32;;;;;;;58.55;25.73;;;;;;;0.55;100.00;99103.78;6123996;23;20659;-82
2021/12/29 06:33:59;;;;;;;69.15;31.17;;;;;;;0.54;100.00;99106.88;6122593;23;20017;-82
2021/12/29 06:36:25;;;;;;;64.85;29.73;;;;;;;0.56;100.00;99110.78;6097942;23;20097;-82
2021/12/29 06:38:50;;;;;;;75.88;34.83;;;;;;;0.61;100.00;99115.84;6122732;23;20100;-77
2021/12/29 06:41:16;;;;;;;78.90;34.35;;;;;;;0.62;100.00;99114.66;6120608;23;20077;-81
2021/12/29 06:43:41;;;;;;;107.72;48.58;;;;;;;0.66;100.00;99120.91;6120618;23;20018;-82
2021/12/29 06:46:07;;;;;;;93.65;41.33;;;;;;;0.67;100.00;99127.16;6122333;23;20065;-82
2021/12/29 06:48:32;;;;;;;71.32;34.95;;;;;;;0.67;100.00;99136.13;6121269;23;20068;-83
2021/12/29 06:50:58;;;;;;;59.42;30.60;;;;;;;0.68;100.00;99136.91;6121109;23;20041;-82
2021/12/29 06:53:23;;;;;;;55.63;27.15;;;;;;;0.69;100.00;99147.41;6121567;23;20141;-82
2021/12/29 06:55:49;;;;;;;55.45;25.80;;;;;;;0.73;100.00;99153.63;6123503;23;20695;-82
2021/12/29 06:58:14;;;;;;;52.28;25.38;;;;;;;0.79;100.00;99152.09;6123151;23;20014;-83
2021/12/29 07:00:40;;;;;;;50.25;24.95;;;;;;;0.82;100.00;99150.50;6097028;23;20432;-77
2021/12/29 07:03:06;;;;;;;57.80;27.55;;;;;;;0.87;100.00;99153.63;6123325;23;20017;-77
2021/12/29 07:05:32;;;;;;;53.47;26.15;;;;;;;0.91;100.00;99159.84;6097093;23;20457;-77
2021/12/29 07:07:58;;;;;;;54.22;26.17;;;;;;;0.87;100.00;99158.31;6097196;23;20389;-77
2021/12/29 07:10:23;;;;;;;60.13;28.25;;;;;;;0.94;100.00;99175.44;6122912;23;20468;-77
2021/12/29 07:12:49;;;;;;;57.92;25.90;;;;;;;0.94;100.00;99175.44;6123229;23;20038;-77
2021/12/29 07:15:16;;;;;;;55.83;25.65;;;;;;;0.93;100.00;99171.16;6122812;23;20460;-77
2021/12/29 07:17:42;;;;;;;58.15;24.70;;;;;;;1.02;100.00;99173.47;6123472;23;20665;-77
2021/12/29 07:20:08;;;;;;;55.53;25.90;;;;;;;1.00;100.00;99158.66;6123033;23;20014;-77
2021/12/29 07:22:33;;;;;;;55.72;26.35;;;;;;;1.07;100.00;99155.91;6122912;23;20018;-77
2021/12/29 07:24:59;;;;;;;60.85;27.35;;;;;;;1.08;100.00;99152.00;6097180;23;20353;-77
2021/12/29 07:27:25;;;;;;;55.08;27.95;;;;;;;1.12;100.00;99158.25;6098439;23;20340;-77
2021/12/29 07:29:52;;;;;;;63.00;30.52;;;;;;;1.06;100.00;99146.16;6123235;23;20020;-77
2021/12/29 07:32:17;;;;;;;56.28;27.33;;;;;;;1.11;100.00;99148.50;6122340;23;20887;-77
2021/12/29 07:34:43;;;;;;;50.65;26.40;;;;;;;1.12;100.00;99147.31;6096973;23;20034;-77
2021/12/29 07:37:09;;;;;;;51.63;27.10;;;;;;;1.17;100.00;99153.16;6123785;23;20044;-77
2021/12/29 07:39:34;;;;;;;54.22;25.55;;;;;;;1.09;100.00;99140.72;6122885;23;20336;-77
2021/12/29 07:42:00;;;;;;;51.85;25.05;;;;;;;1.18;100.00;99151.97;6097112;23;20026;-77
2021/12/29 07:44:30;;;;;;;53.38;25.52;;;;;;;1.22;100.00;99147.28;6097512;23;20149;-77
2021/12/29 07:46:58;;;;;;;49.38;26.33;;;;;;;1.21;100.00;99140.28;6123903;23;20577;-77
2021/12/29 07:49:24;;;;;;;48.88;25.77;;;;;;;1.14;100.00;99153.16;6123393;23;20014;-77
2021/12/29 07:51:49;;;;;;;50.00;25.42;;;;;;;1.18;100.00;99159.38;6073774;23;20013;-77
2021/12/29 07:54:17;;;;;;;54.67;25.92;;;;;;;1.18;100.00;99146.50;6122849;23;20010;-77
2021/12/29 07:56:44;;;;;;;55.13;26.50;;;;;;;1.28;100.00;99151.16;6121470;23;20014;-77
2021/12/29 07:59:10;;;;;;;58.25;27.80;;;;;;;1.38;100.00;99163.22;6120715;23;20009;-77
2021/12/29 08:01:36;;;;;;;60.53;28.80;;;;;;;1.42;100.00;99162.03;6120334;23;20381;-77
2021/12/29 08:04:01;;;;;;;53.45;27.00;;;;;;;1.49;100.00;99169.44;6120306;23;20056;-77
2021/12/29 08:06:27;;;;;;;54.85;27.60;;;;;;;1.49;100.00;99169.44;6094799;23;20448;-77
2021/12/29 08:08:54;;;;;;;68.25;28.48;;;;;;;1.53;100.00;99172.94;6095520;23;20035;-77
2021/12/29 08:11:19;;;;;;;64.18;30.42;;;;;;;1.59;100.00;99179.53;6071904;23;20556;-77
2021/12/29 08:13:46;;;;;;;73.90;33.58;;;;;;;1.60;100.00;99189.28;6095690;23;20033;-77
2021/12/29 08:16:12;;;;;;;67.72;31.00;;;;;;;1.62;100.00;99184.19;6096581;23;20083;-82
2021/12/29 08:18:37;;;;;;;73.07;29.48;;;;;;;1.63;100.00;99188.50;6121923;23;20013;-81
2021/12/29 08:21:03;;;;;;;64.70;25.73;;;;;;;1.64;100.00;99184.59;6120623;23;20108;-82
2021/12/29 08:23:28;;;;;;;57.58;24.00;;;;;;;1.60;100.00;99175.63;6119976;23;20014;-82
2021/12/29 08:25:54;;;;;;;51.80;24.02;;;;;;;1.63;100.00;99171.31;6094792;23;20018;-82
2021/12/29 08:28:22;;;;;;;48.20;22.50;;;;;;;1.66;100.00;99174.03;6120450;23;20428;-81
2021/12/29 08:30:48;;;;;;;55.90;22.55;;;;;;;1.65;100.00;99174.44;6120385;23;20025;-82
2021/12/29 08:33:13;;;;;;;47.97;23.33;;;;;;;1.71;100.00;99178.31;6095203;23;20013;-82
2021/12/29 08:35:39;;;;;;;49.20;23.17;;;;;;;1.73;100.00;99186.91;6095508;23;20169;-77
2021/12/29 08:38:04;;;;;;;47.50;23.95;;;;;;;1.70;100.00;99183.00;6121548;23;20014;-77
2021/12/29 08:40:30;;;;;;;47.88;22.33;;;;;;;1.60;100.00;99189.28;6121156;23;20428;-77
2021/12/29 08:42:58;;;;;;;51.28;24.38;;;;;;;1.61;100.00;99190.84;6119814;23;20010;-77
2021/12/29 08:45:27;;;;;;;46.03;22.75;;;;;;;1.63;100.00;99193.97;6119188;23;20041;-76
2021/12/29 08:47:55;;;;;;;43.50;21.77;;;;;;;1.65;100.00;99185.38;6120157;23;20436;-76
2021/12/29 08:50:22;;;;;;;49.80;23.00;;;;;;;1.70;100.00;99195.91;6093379;23;20049;-77
2021/12/29 08:52:48;;;;;;;49.40;24.17;;;;;;;1.75;100.00;99190.78;6093143;23;20013;-77
2021/12/29 08:55:14;;;;;;;47.00;24.02;;;;;;;1.68;100.00;99187.31;6119503;23;20010;-77
2021/12/29 08:57:40;;;;;;;69.20;33.05;;;;;;;1.73;100.00;99186.91;6095997;23;20093;-77
2021/12/29 09:00:10;;;;;;;88.63;41.50;;;;;;;1.73;100.00;99198.63;6048656;23;20080;-76
2021/12/29 09:02:36;;;;;;;165.18;73.20;;;;;;;1.76;100.00;99197.81;6122609;23;20611;-77
2021/12/29 09:05:02;;;;;;;139.30;63.70;;;;;;;1.83;100.00;99181.38;6122806;23;20092;-77
2021/12/29 09:07:28;;;;;;;115.78;52.92;;;;;;;1.85;100.00;99189.97;6121698;23;20345;-76
2021/12/29 09:09:53;;;;;;;110.53;51.47;;;;;;;1.87;100.00;99190.31;6097602;23;20010;-77
2021/12/29 09:12:19;;;;;;;85.63;38.38;;;;;;;1.85;100.00;99194.66;6123024;23;20034;-77
2021/12/29 09:14:45;;;;;;;71.32;33.25;;;;;;;1.85;100.00;99173.56;6123491;23;20392;-77
2021/12/29 09:17:11;;;;;;;98.85;32.28;;;;;;;1.73;100.00;99176.75;6123679;23;20014;-77
2021/12/29 09:19:40;;;;;;;66.82;30.55;;;;;;;1.80;100.00;99165.75;6097037;23;20444;-76
2021/12/29 09:22:07;;;;;;;55.72;27.10;;;;;;;1.78;100.00;99154.44;6122721;23;20029;-77
2021/12/29 09:24:32;;;;;;;72.20;26.92;;;;;;;1.71;100.00;99168.16;6122228;23;20061;-77
2021/12/29 09:26:58;;;;;;;64.70;27.77;;;;;;;1.89;100.00;99187.19;6123458;23;20018;-76
2021/12/29 09:29:23;;;;;;;66.63;26.83;;;;;;;2.00;100.00;99192.59;6121638;23;20041;-77
2021/12/29 09:31:49;;;;;;;60.47;27.48;;;;;;;2.10;100.00;99184.34;6122523;23;20014;-77
2021/12/29 09:34:14;;;;;;;61.78;26.45;;;;;;;2.21;100.00;99176.84;6095952;23;20014;-82
2021/12/29 09:36:40;;;;;;;119.40;27.35;;;;;;;2.10;100.00;99178.09;6120648;23;20010;-82
2021/12/29 09:39:06;;;;;;;57.30;24.50;;;;;;;2.15;100.00;99180.38;6123324;23;20041;-82
2021/12/29 09:41:32;;;;;;;63.58;25.85;;;;;;;2.10;100.00;99164.41;6096985;23;20444;-82
2021/12/29 09:43:58;;;;;;;68.75;27.73;;;;;;;2.14;100.00;99174.16;6122963;23;20080;-81
2021/12/29 09:46:24;;;;;;;55.13;26.35;;;;;;;2.25;100.00;99174.06;6122764;23;20407;-82
2021/12/29 09:48:51;;;;;;;61.47;37.08;;;;;;;2.31;100.00;99165.03;6122685;23;20424;-82
2021/12/29 09:51:18;;;;;;;81.00;28.25;;;;;;;2.38;100.00;99177.91;6122548;23;20018;-81
2021/12/29 09:53:44;;;;;;;63.38;25.75;;;;;;;2.53;100.00;99186.75;6123219;23;20006;-82
2021/12/29 09:56:11;;;;;;;53.67;26.10;;;;;;;2.68;100.00;99197.19;6097256;23;20045;-82
2021/12/29 09:58:38;;;;;;;48.05;24.73;;;;;;;2.83;100.00;99210.78;6121912;23;20013;-81
2021/12/29 10:01:06;;;;;;;49.28;26.45;;;;;;;2.92;100.00;99216.53;6097419;23;20017;-82
2021/12/29 10:03:33;;;;;;;50.00;26.30;;;;;;;3.02;100.00;99229.38;6122023;23;20439;-82
2021/12/29 10:06:01;;;;;;;56.33;28.98;;;;;;;3.11;100.00;99213.25;6123091;23;20399;-81
2021/12/29 10:08:29;;;;;;;61.42;30.92;;;;;;;3.30;100.00;99209.91;6124183;23;20010;-80
2021/12/29 10:10:58;;;;;;;59.60;31.00;;;;;;;3.55;100.00;99202.19;6124561;23;20018;-77
2021/12/29 10:13:25;;;;;;;56.75;33.38;;;;;;;3.75;100.00;99196.84;6124453;23;20017;-77
2021/12/29 10:15:54;;;;;;;55.30;32.97;;;;;;;3.93;100.00;99208.34;6098539;23;20013;-77
2021/12/29 10:18:25;;;;;;;43.67;27.20;;;;;;;4.01;100.00;99212.56;6124312;23;20010;-77
2021/12/29 10:20:52;;;;;;;43.10;26.08;;;;;;;4.05;100.00;99215.25;6124208;23;20018;-77
2021/12/29 10:23:29;;;;;;;42.75;26.85;;;;;;;4.16;100.00;99213.94;6075848;23;20014;-77
2021/12/29 10:25:56;;;;;;;37.55;23.52;;;;;;;4.19;100.00;99209.56;6099201;23;20034;-77
2021/12/29 10:28:25;;;;;;;41.75;24.38;;;;;;;4.15;100.00;99189.63;6097542;23;20393;-77
2021/12/29 10:31:02;;;;;;;35.30;22.75;;;;;;;4.27;100.00;99188.28;6123352;23;20349;-82
2021/12/29 10:33:39;;;;;;;33.45;21.48;;;;;;;4.33;100.00;99192.88;6123392;23;20010;-82
2021/12/29 10:36:17;;;;;;;33.15;19.85;;;;;;;4.46;100.00;99195.84;6122963;23;20375;-82
2021/12/29 10:38:45;;;;;;;33.53;21.75;;;;;;;4.60;100.00;99196.41;6122679;23;20017;-82
2021/12/29 10:41:11;;;;;;;31.80;20.95;;;;;;;4.83;100.00;99197.59;6123687;23;20014;-82
2021/12/29 10:43:40;;;;;;;38.22;25.48;;;;;;;4.96;100.00;99201.28;6122815;23;20072;-82
2021/12/29 10:46:17;;;;;;;30.38;20.70;;;;;;;5.12;100.00;99198.66;6123312;23;20420;-82
2021/12/29 10:48:47;;;;;;;30.85;21.70;;;;;;;5.22;100.00;99197.66;6097285;23;20081;-82
2021/12/29 10:51:12;;;;;;;32.08;21.63;;;;;;;5.22;100.00;99214.16;6097118;23;20508;-82
2021/12/29 10:53:39;;;;;;;31.63;19.88;;;;;;;5.12;100.00;99217.88;6123061;23;20106;-82
2021/12/29 10:56:06;;;;;;;29.85;20.52;;;;;;;5.08;100.00;99211.69;6097720;23;20451;-82
2021/12/29 10:58:34;;;;;;;31.38;20.33;;;;;;;5.06;100.00;99214.06;6122732;23;20010;-82
2021/12/29 11:01:11;;;;;;;30.90;20.25;;;;;;;5.08;100.00;99220.72;6123154;23;20116;-82
2021/12/29 11:03:57;;;;;;;30.48;20.85;;;;;;;5.04;100.00;99202.72;6096763;23;20359;-82
2021/12/29 11:06:24;;;;;;;31.95;20.73;;;;;;;4.98;100.00;99209.88;6122600;23;20050;-85
2021/12/29 11:08:52;;;;;;;29.60;19.38;;;;;;;5.00;100.00;99207.50;6123082;23;20018;-76
2021/12/29 11:11:23;;;;;;;32.17;20.77;;;;;;;4.96;100.00;99199.31;6123035;23;20033;-77
2021/12/29 11:13:49;;;;;;;28.88;19.80;;;;;;;5.04;100.00;99197.22;6097059;23;20018;-76
2021/12/29 11:16:17;;;;;;;27.80;19.17;;;;;;;5.05;100.00;99204.28;6123119;23;20037;-76
2021/12/29 11:18:49;;;;;;;28.25;19.15;;;;;;;5.01;100.00;99192.56;6121947;23;20022;-77